Terminal Aerodrome Forecast
Issued by NWS

Home | Current Version | Previous Version | Text Only | Print | Product List | Glossary On
Versions: 1 2 3 4 5 6 7 8 9 10 11 12 13 14 15 16 17 18
000
FTUS45 KBOI 051737
TAFBKE
TAF
KBKE 051737Z 0518/0618 VRB03KT P6SM SCT060
     FM060200 12007KT P6SM VCSH SCT030 BKN050
     FM060500 VRB06KT 3SM -SN BR OVC025 PROB30 0615/0618 2SM -SN BR
      OVC015=

USA.gov is the U.S. government's official web portal to all federal, state and local government web resources and services.